createdAt,value
2022-12-22T00:01:50.343Z,5.75
2022-12-22T00:04:35.915Z,5.85
2022-12-22T00:07:21.015Z,5.75
2022-12-22T00:10:06.176Z,5.75
2022-12-22T00:12:51.595Z,5.81
2022-12-22T00:15:36.686Z,5.85
2022-12-22T00:18:21.887Z,5.81
2022-12-22T00:21:07.048Z,5.79
2022-12-22T00:23:52.771Z,5.77
2022-12-22T00:26:37.900Z,5.82
2022-12-22T00:29:23.097Z,5.84
2022-12-22T00:32:08.136Z,5.79
2022-12-22T00:34:58.746Z,5.85
2022-12-22T00:37:52.127Z,5.82
2022-12-22T00:40:38.862Z,5.81
2022-12-22T00:43:24.176Z,5.80
2022-12-22T00:46:09.599Z,5.81
2022-12-22T00:48:54.784Z,5.80
2022-12-22T00:51:39.878Z,5.81
2022-12-22T00:54:28.030Z,5.83
2022-12-22T00:57:13.340Z,5.90
2022-12-22T00:59:58.411Z,5.84
2022-12-22T01:02:43.586Z,5.79
2022-12-22T01:05:28.825Z,5.78
2022-12-22T01:08:14.030Z,5.75
2022-12-22T01:10:59.180Z,5.83
2022-12-22T01:13:44.266Z,5.90
2022-12-22T01:16:30.125Z,5.90
2022-12-22T01:19:15.309Z,5.85
2022-12-22T01:22:00.444Z,5.83
2022-12-22T01:24:45.947Z,5.83
2022-12-22T01:27:31.685Z,5.81
2022-12-22T01:30:16.801Z,5.87
2022-12-22T01:33:01.919Z,5.89
2022-12-22T01:35:48.936Z,5.89
2022-12-22T01:38:34.084Z,6.00
2022-12-22T01:41:19.195Z,6.02
2022-12-22T01:44:04.250Z,5.98
2022-12-22T01:46:59.552Z,6.03
2022-12-22T01:49:47.650Z,6.03
2022-12-22T01:52:34.692Z,6.05
2022-12-22T01:55:21.949Z,6.10
2022-12-22T01:58:07.108Z,6.08
2022-12-22T02:00:52.691Z,6.14
2022-12-22T02:03:39.609Z,6.22
2022-12-22T02:06:40.878Z,6.29
2022-12-22T02:09:54.264Z,6.35
2022-12-22T02:13:02.643Z,6.30
2022-12-22T02:15:57.933Z,6.21
2022-12-22T02:19:16.597Z,6.18
2022-12-22T02:22:15.943Z,6.24
2022-12-22T02:25:05.011Z,6.35
2022-12-22T02:27:50.145Z,6.29
2022-12-22T02:30:35.195Z,6.34
2022-12-22T02:33:20.338Z,6.35
2022-12-22T02:36:20.611Z,6.32
2022-12-22T02:39:24.008Z,6.39
2022-12-22T02:42:24.340Z,6.45
2022-12-22T02:45:32.835Z,6.30
2022-12-22T02:48:41.741Z,6.36
2022-12-22T02:51:35.999Z,6.41
2022-12-22T02:54:21.076Z,6.45
2022-12-22T02:57:06.227Z,6.47
2022-12-22T02:59:51.251Z,6.58
2022-12-22T03:02:36.603Z,6.56
2022-12-22T03:05:21.945Z,6.60
2022-12-22T03:08:08.720Z,6.60
2022-12-22T03:10:54.064Z,6.66
2022-12-22T03:13:39.246Z,6.62
2022-12-22T03:16:24.247Z,6.68
2022-12-22T03:19:09.534Z,6.69
2022-12-22T03:21:54.677Z,6.73
2022-12-22T03:24:40.163Z,6.64
2022-12-22T03:27:06.632Z,6.61
2022-12-22T03:29:33.108Z,6.71
2022-12-22T03:31:59.646Z,6.69
2022-12-22T03:34:26.228Z,6.75
2022-12-22T03:36:52.692Z,6.76
2022-12-22T03:39:19.226Z,6.67
2022-12-22T03:42:04.314Z,6.74
2022-12-22T03:44:49.067Z,6.63
2022-12-22T03:47:15.583Z,6.55
2022-12-22T03:49:42.108Z,6.65
2022-12-22T03:52:08.578Z,6.74
2022-12-22T03:54:35.128Z,6.68
2022-12-22T03:57:01.599Z,6.78
2022-12-22T03:59:28.070Z,6.85
2022-12-22T04:01:54.834Z,6.75
2022-12-22T04:04:23.542Z,6.60
2022-12-22T04:06:50.004Z,6.73
2022-12-22T04:09:16.523Z,6.86
2022-12-22T04:12:01.827Z,6.78
2022-12-22T04:14:33.907Z,6.84
2022-12-22T04:17:02.292Z,6.78
2022-12-22T04:19:28.812Z,6.78
2022-12-22T04:21:55.283Z,6.83
2022-12-22T04:24:22.319Z,6.76
2022-12-22T04:26:49.234Z,6.78
2022-12-22T04:29:15.780Z,6.90
2022-12-22T04:31:42.293Z,6.95
2022-12-22T04:34:08.817Z,6.94
2022-12-22T04:36:35.280Z,6.89
2022-12-22T04:39:01.764Z,6.98
2022-12-22T04:41:28.243Z,6.93
2022-12-22T04:43:54.706Z,6.89
2022-12-22T04:46:21.227Z,7.00
2022-12-22T04:48:47.750Z,6.96
2022-12-22T04:51:14.248Z,6.97
2022-12-22T04:53:40.738Z,7.06
2022-12-22T04:56:07.699Z,7.01
2022-12-22T04:58:34.548Z,7.01
2022-12-22T05:01:14.580Z,7.00
2022-12-22T05:03:41.212Z,7.00
2022-12-22T05:06:08.074Z,7.05
2022-12-22T05:08:34.646Z,6.99
2022-12-22T05:11:02.808Z,7.01
2022-12-22T05:13:30.487Z,7.09
2022-12-22T05:16:32.503Z,7.07
2022-12-22T05:18:59.014Z,7.01
2022-12-22T05:21:25.475Z,7.02
2022-12-22T05:23:52.230Z,7.05
2022-12-22T05:26:18.981Z,7.04
2022-12-22T05:28:46.357Z,7.05
2022-12-22T05:31:17.732Z,7.05
2022-12-22T05:33:44.466Z,7.13
2022-12-22T05:36:11.118Z,7.16
2022-12-22T05:38:38.501Z,7.15
2022-12-22T05:41:05.088Z,7.15
2022-12-22T05:43:32.538Z,7.18
2022-12-22T05:46:04.764Z,7.21
2022-12-22T05:48:37.499Z,7.19
2022-12-22T05:51:05.617Z,7.11
2022-12-22T05:53:32.098Z,7.14
2022-12-22T05:55:58.557Z,7.25
2022-12-22T05:58:25.030Z,7.23
2022-12-22T06:00:51.503Z,7.26
2022-12-22T06:03:18.103Z,7.33
2022-12-22T06:05:44.664Z,7.30
2022-12-22T06:08:11.126Z,7.32
2022-12-22T06:10:37.611Z,7.26
2022-12-22T06:13:04.068Z,7.34
2022-12-22T06:15:30.527Z,7.34
2022-12-22T06:17:56.989Z,7.35
2022-12-22T06:20:23.483Z,7.32
2022-12-22T06:22:49.967Z,7.29
2022-12-22T06:25:18.720Z,7.33
2022-12-22T06:27:45.932Z,7.35
2022-12-22T06:30:12.649Z,7.32
2022-12-22T06:32:39.222Z,7.29
2022-12-22T06:35:07.084Z,7.35
2022-12-22T06:37:33.584Z,7.36
2022-12-22T06:40:00.113Z,7.26
2022-12-22T06:42:45.185Z,7.33
2022-12-22T06:45:11.700Z,7.41
2022-12-22T06:47:38.176Z,7.41
2022-12-22T06:50:05.283Z,7.45
2022-12-22T06:52:31.774Z,7.42
2022-12-22T06:54:58.244Z,7.36
2022-12-22T06:57:24.697Z,7.37
2022-12-22T06:59:57.288Z,7.43
2022-12-22T07:02:24.335Z,7.47
2022-12-22T07:04:50.956Z,7.40
2022-12-22T07:07:17.671Z,7.37
2022-12-22T07:09:44.175Z,7.39
2022-12-22T07:12:10.666Z,7.40
2022-12-22T07:14:37.137Z,7.39
2022-12-22T07:17:03.654Z,7.45
2022-12-22T07:19:30.141Z,7.47
2022-12-22T07:21:56.900Z,7.44
2022-12-22T07:24:25.835Z,7.47
2022-12-22T07:26:52.578Z,7.45
2022-12-22T07:29:19.070Z,7.40
2022-12-22T07:31:45.588Z,7.41
2022-12-22T07:34:12.105Z,7.41
2022-12-22T07:36:38.560Z,7.51
2022-12-22T07:39:05.018Z,7.42
2022-12-22T07:41:50.115Z,7.41
2022-12-22T07:44:16.575Z,7.43
2022-12-22T07:46:43.063Z,7.50
2022-12-22T07:49:28.966Z,7.42
2022-12-22T07:51:58.863Z,7.47
2022-12-22T07:54:25.534Z,7.53
2022-12-22T07:56:52.225Z,7.51
2022-12-22T07:59:19.022Z,7.41
2022-12-22T08:01:45.823Z,7.41
2022-12-22T08:04:13.177Z,7.39
2022-12-22T08:06:39.698Z,7.51
2022-12-22T08:09:06.568Z,7.48
2022-12-22T08:11:33.109Z,7.46
2022-12-22T08:14:01.945Z,7.50
2022-12-22T08:16:28.868Z,7.52
2022-12-22T08:18:55.360Z,7.47
2022-12-22T08:21:21.826Z,7.50
2022-12-22T08:23:48.323Z,7.46
2022-12-22T08:26:22.431Z,7.42
2022-12-22T08:28:52.342Z,7.39
2022-12-22T08:31:18.955Z,7.36
2022-12-22T08:33:45.473Z,7.37
2022-12-22T08:36:11.934Z,7.37
2022-12-22T08:38:38.768Z,7.38
2022-12-22T08:41:05.400Z,7.41
2022-12-22T08:43:31.875Z,7.39
2022-12-22T08:45:58.371Z,7.38
2022-12-22T08:48:24.848Z,7.34
2022-12-22T08:50:51.304Z,7.34
2022-12-22T08:53:37.616Z,7.38
2022-12-22T08:56:04.317Z,7.34
2022-12-22T08:58:30.789Z,7.37
2022-12-22T09:00:57.843Z,7.29
2022-12-22T09:03:24.380Z,7.26
2022-12-22T09:05:50.876Z,7.32
2022-12-22T09:08:17.374Z,7.36
2022-12-22T09:10:43.997Z,7.35
2022-12-22T09:13:10.501Z,7.35
2022-12-22T09:15:37.180Z,7.39
2022-12-22T09:18:03.674Z,7.32
2022-12-22T09:20:30.142Z,7.30
2022-12-22T09:22:56.627Z,7.29
2022-12-22T09:25:23.092Z,7.27
2022-12-22T09:27:49.565Z,7.29
2022-12-22T09:30:16.081Z,7.39
2022-12-22T09:32:42.583Z,7.41
2022-12-22T09:35:09.216Z,7.44
2022-12-22T09:37:35.700Z,7.46
2022-12-22T09:40:02.171Z,7.50
2022-12-22T09:42:28.667Z,7.54
2022-12-22T09:44:55.206Z,7.55
2022-12-22T09:47:37.809Z,7.48
2022-12-22T09:50:08.814Z,7.45
2022-12-22T09:52:35.173Z,7.43
2022-12-22T09:55:02.307Z,7.43
2022-12-22T09:57:32.200Z,7.52
2022-12-22T10:00:02.338Z,7.55
2022-12-22T10:02:34.879Z,7.60
2022-12-22T10:05:28.215Z,7.65
2022-12-22T10:07:59.227Z,7.80
2022-12-22T10:10:31.248Z,7.86
2022-12-22T10:13:01.372Z,7.85
2022-12-22T10:15:35.037Z,7.96
2022-12-22T10:18:16.072Z,7.95
2022-12-22T10:20:44.777Z,7.97
2022-12-22T10:23:20.735Z,7.97
2022-12-22T10:28:47.732Z,8.05
2022-12-22T10:31:23.423Z,8.10
2022-12-22T10:33:51.616Z,8.23
2022-12-22T10:36:32.194Z,8.15
2022-12-22T10:39:03.324Z,8.12
2022-12-22T10:41:36.552Z,8.23
2022-12-22T10:44:06.478Z,8.27
2022-12-22T10:46:35.643Z,8.16
2022-12-22T10:49:27.716Z,8.21
2022-12-22T10:52:08.980Z,8.29
2022-12-22T10:54:38.425Z,8.22
2022-12-22T10:57:13.854Z,8.22
2022-12-22T10:59:51.011Z,8.34
2022-12-22T11:02:37.886Z,8.31
2022-12-22T11:05:11.408Z,8.29
2022-12-22T11:07:42.731Z,8.27
2022-12-22T11:10:34.025Z,8.27
2022-12-22T11:13:20.841Z,8.19
2022-12-22T11:16:05.850Z,8.06
2022-12-22T11:19:18.220Z,7.94
2022-12-22T11:21:50.373Z,7.91
2022-12-22T11:24:39.815Z,7.84
2022-12-22T11:27:42.271Z,7.78
2022-12-22T11:30:24.640Z,7.80
2022-12-22T11:33:00.508Z,7.77
2022-12-22T11:35:41.402Z,7.76
2022-12-22T11:38:49.986Z,7.77
2022-12-22T11:41:32.958Z,7.68
2022-12-22T11:44:25.179Z,7.66
2022-12-22T11:47:00.383Z,7.62
2022-12-22T11:49:30.999Z,7.64
2022-12-22T11:52:00.363Z,7.76
2022-12-22T11:54:40.758Z,7.65
2022-12-22T11:57:28.073Z,7.70
2022-12-22T12:00:14.347Z,7.58
2022-12-22T12:02:56.065Z,7.69
2022-12-22T12:05:42.589Z,7.71
2022-12-22T12:08:21.785Z,7.80
2022-12-22T12:10:51.772Z,7.72
2022-12-22T12:13:36.508Z,7.73
2022-12-22T12:16:18.626Z,7.74
2022-12-22T12:19:12.263Z,7.79
2022-12-22T12:21:45.886Z,7.70
2022-12-22T12:24:40.606Z,7.68
2022-12-22T12:27:28.576Z,7.66
2022-12-22T12:33:34.883Z,7.89
2022-12-22T12:36:22.080Z,7.82
2022-12-22T12:39:07.570Z,7.77
2022-12-22T12:41:59.243Z,7.90
2022-12-22T12:44:27.616Z,7.79
2022-12-22T12:46:56.495Z,7.86
2022-12-22T12:49:35.331Z,7.86
2022-12-22T12:52:04.807Z,7.81
2022-12-22T12:54:35.833Z,7.86
2022-12-22T12:57:11.407Z,7.89
2022-12-22T12:59:41.088Z,7.90
2022-12-22T13:02:28.086Z,7.88
2022-12-22T13:05:18.276Z,7.92
2022-12-22T13:08:14.213Z,7.84
2022-12-22T13:10:48.639Z,7.92
2022-12-22T13:13:27.091Z,8.00
2022-12-22T13:16:02.941Z,7.88
2022-12-22T13:18:29.521Z,7.87
2022-12-22T13:21:50.887Z,7.90
2022-12-22T13:26:44.052Z,7.72
2022-12-22T13:29:22.816Z,7.74
2022-12-22T13:32:11.416Z,7.77
2022-12-22T13:35:28.895Z,7.76
2022-12-22T13:37:45.242Z,7.78
2022-12-22T13:40:22.490Z,7.54
2022-12-22T13:42:52.824Z,7.56
2022-12-22T13:45:29.901Z,7.50
2022-12-22T13:47:56.407Z,7.61
2022-12-22T13:50:28.367Z,7.70
2022-12-22T13:52:54.854Z,7.76
2022-12-22T13:55:27.239Z,7.65
2022-12-22T13:57:58.423Z,7.75
2022-12-22T14:00:26.294Z,7.67
2022-12-22T14:02:52.934Z,7.63
2022-12-22T14:05:19.653Z,7.52
2022-12-22T14:08:05.651Z,7.43
2022-12-22T14:10:41.484Z,7.30
2022-12-22T14:13:14.062Z,7.32
2022-12-22T14:15:40.540Z,7.44
2022-12-22T14:18:07.029Z,7.34
2022-12-22T14:20:37.281Z,7.30
2022-12-22T14:23:05.797Z,7.29
2022-12-22T14:25:41.909Z,7.28
2022-12-22T14:28:29.989Z,7.33
2022-12-22T14:30:58.447Z,7.19
2022-12-22T14:33:27.573Z,7.16
2022-12-22T14:36:16.938Z,7.11
2022-12-22T14:38:47.917Z,7.22
2022-12-22T14:41:41.927Z,7.14
2022-12-22T14:44:40.466Z,6.94
2022-12-22T14:47:11.901Z,6.95
2022-12-22T14:49:46.449Z,7.04
2022-12-22T14:52:26.568Z,6.89
2022-12-22T14:54:53.655Z,6.83
2022-12-22T14:57:29.229Z,6.75
2022-12-22T15:00:00.604Z,6.65
2022-12-22T15:02:38.628Z,6.59
2022-12-22T15:05:10.776Z,6.49
2022-12-22T15:08:06.204Z,6.36
2022-12-22T15:10:40.309Z,6.22
2022-12-22T15:13:10.805Z,5.84
2022-12-22T15:15:37.276Z,5.54
2022-12-22T15:18:03.833Z,5.34
2022-12-22T15:20:37.017Z,5.21
2022-12-22T15:23:12.410Z,5.22
2022-12-22T15:25:38.879Z,5.09
2022-12-22T15:28:05.363Z,4.91
2022-12-22T15:30:32.194Z,4.94
2022-12-22T15:32:58.693Z,4.69
2022-12-22T15:35:28.765Z,4.68
2022-12-22T15:37:55.235Z,4.45
2022-12-22T15:40:22.331Z,4.43
2022-12-22T15:42:49.459Z,4.46
2022-12-22T15:45:16.268Z,4.60
2022-12-22T15:47:43.773Z,4.53
2022-12-22T15:50:19.101Z,4.66
2022-12-22T15:52:47.817Z,4.46
2022-12-22T15:55:15.108Z,4.27
2022-12-22T15:57:41.938Z,4.24
2022-12-22T16:00:11.466Z,4.36
2022-12-22T16:02:38.126Z,4.34
2022-12-22T16:05:04.969Z,4.34
2022-12-22T16:07:31.448Z,4.15
2022-12-22T16:09:58.832Z,4.00
2022-12-22T16:12:25.371Z,4.39
2022-12-22T16:14:53.331Z,4.11
2022-12-22T16:17:21.482Z,4.37
2022-12-22T16:19:47.944Z,4.29
2022-12-22T16:22:14.492Z,4.48
2022-12-22T16:24:41.252Z,4.36
2022-12-22T16:27:09.376Z,4.40
2022-12-22T16:29:35.849Z,4.46
2022-12-22T16:32:21.564Z,4.70
2022-12-22T16:34:48.616Z,4.42
2022-12-22T16:37:15.116Z,4.53
2022-12-22T16:39:41.575Z,4.42
2022-12-22T16:45:02.085Z,4.14
2022-12-22T16:47:33.792Z,3.98
2022-12-22T16:50:00.434Z,3.75
2022-12-22T16:52:31.223Z,3.87
2022-12-22T16:54:57.742Z,3.85
2022-12-22T16:57:24.225Z,3.60
2022-12-22T16:59:50.720Z,3.76
2022-12-22T17:02:28.496Z,4.15
2022-12-22T17:04:55.640Z,3.93
2022-12-22T17:07:22.092Z,3.60
2022-12-22T17:09:52.657Z,3.94
2022-12-22T17:12:21.291Z,3.70
2022-12-22T17:14:47.793Z,3.75
2022-12-22T17:17:18.273Z,3.82
2022-12-22T17:19:44.861Z,3.71
2022-12-22T17:22:30.860Z,3.78
2022-12-22T17:24:59.321Z,3.81
2022-12-22T17:27:27.497Z,3.88
2022-12-22T17:29:53.947Z,4.01
2022-12-22T17:32:20.828Z,3.98
2022-12-22T17:34:47.700Z,3.87
2022-12-22T17:37:23.310Z,3.99
2022-12-22T17:39:51.406Z,4.02
2022-12-22T17:42:18.807Z,3.93
2022-12-22T17:44:45.667Z,3.76
2022-12-22T17:47:16.324Z,3.89
2022-12-22T17:49:44.068Z,4.10
2022-12-22T17:52:18.228Z,3.86
2022-12-22T17:54:45.749Z,3.95
2022-12-22T17:57:24.569Z,4.11
2022-12-22T17:59:51.042Z,4.14
2022-12-22T18:02:18.453Z,4.14
2022-12-22T18:04:45.314Z,4.20
2022-12-22T18:07:11.973Z,4.25
2022-12-22T18:09:38.460Z,4.26
2022-12-22T18:12:16.055Z,4.31
2022-12-22T18:14:43.544Z,4.45
2022-12-22T18:17:21.091Z,4.25
2022-12-22T18:19:47.554Z,4.07
2022-12-22T18:22:32.538Z,4.10
2022-12-22T18:24:59.010Z,4.28
2022-12-22T18:27:25.553Z,4.34
2022-12-22T18:29:52.079Z,4.47
2022-12-22T18:32:25.467Z,4.37
2022-12-22T18:34:54.145Z,4.36
2022-12-22T18:37:20.634Z,4.30
2022-12-22T18:39:47.097Z,4.24
2022-12-22T18:42:22.292Z,4.20
2022-12-22T18:44:49.159Z,4.36
2022-12-22T18:47:15.747Z,4.38
2022-12-22T18:49:42.360Z,4.40
2022-12-22T18:52:19.315Z,4.43
2022-12-22T18:54:45.845Z,4.39
2022-12-22T18:57:13.861Z,4.53
2022-12-22T18:59:40.345Z,4.46
2022-12-22T19:02:22.424Z,4.36
2022-12-22T19:04:54.341Z,4.35
2022-12-22T19:07:22.347Z,4.67
2022-12-22T19:09:49.150Z,4.61
2022-12-22T19:12:20.687Z,4.70
2022-12-22T19:14:47.790Z,4.78
2022-12-22T19:17:20.044Z,4.82
2022-12-22T19:19:46.676Z,4.84
2022-12-22T19:22:14.291Z,4.83
2022-12-22T19:24:46.861Z,4.80
2022-12-22T19:27:24.923Z,4.92
2022-12-22T19:29:58.823Z,4.94
2022-12-22T19:32:30.327Z,5.13
2022-12-22T19:34:56.873Z,5.16
2022-12-22T19:37:23.353Z,5.13
2022-12-22T19:39:49.827Z,5.03
2022-12-22T19:42:18.843Z,5.07
2022-12-22T19:44:45.307Z,5.26
2022-12-22T19:47:19.503Z,5.32
2022-12-22T19:49:45.997Z,5.28
2022-12-22T19:52:12.473Z,5.40
2022-12-22T19:54:38.974Z,5.37
2022-12-22T19:57:06.704Z,5.31
2022-12-22T19:59:47.011Z,5.42
2022-12-22T20:02:32.143Z,5.41
2022-12-22T20:04:58.995Z,5.35
2022-12-22T20:07:26.550Z,5.45
2022-12-22T20:09:53.072Z,5.48
2022-12-22T20:12:36.535Z,5.53
2022-12-22T20:15:16.067Z,5.56
2022-12-22T20:17:42.539Z,5.62
2022-12-22T20:20:16.162Z,5.59
2022-12-22T20:22:46.851Z,5.63
2022-12-22T20:25:17.090Z,5.65
2022-12-22T20:27:43.488Z,5.70
2022-12-22T20:30:16.413Z,5.75
2022-12-22T20:32:42.871Z,5.83
2022-12-22T20:35:09.322Z,5.82
2022-12-22T20:37:35.829Z,5.84
2022-12-22T20:40:02.303Z,5.90
2022-12-22T20:42:28.786Z,5.87
2022-12-22T20:45:02.317Z,5.93
2022-12-22T20:47:30.027Z,5.89
2022-12-22T20:49:56.565Z,5.90
2022-12-22T20:52:23.022Z,5.92
2022-12-22T20:54:49.579Z,5.87
2022-12-22T20:57:16.081Z,5.96
2022-12-22T20:59:43.330Z,5.87
2022-12-22T21:02:23.170Z,5.90
2022-12-22T21:04:49.884Z,5.87
2022-12-22T21:07:16.632Z,5.83
2022-12-22T21:09:43.113Z,5.83
2022-12-22T21:12:09.618Z,5.87
2022-12-22T21:14:36.089Z,5.84
2022-12-22T21:17:02.651Z,5.82
2022-12-22T21:19:29.449Z,5.91
2022-12-22T21:21:55.903Z,5.93
2022-12-22T21:24:22.436Z,5.96
2022-12-22T21:26:50.320Z,5.94
2022-12-22T21:29:19.418Z,6.02
2022-12-22T21:31:45.891Z,5.93
2022-12-22T21:34:12.370Z,5.97
2022-12-22T21:36:38.910Z,5.98
2022-12-22T21:39:33.877Z,5.94
2022-12-22T21:42:00.382Z,5.93
2022-12-22T21:44:31.337Z,5.95
2022-12-22T21:46:57.956Z,5.98
2022-12-22T21:49:26.622Z,6.02
2022-12-22T21:51:53.521Z,6.08
2022-12-22T21:54:20.465Z,6.17
2022-12-22T21:56:47.011Z,6.15
2022-12-22T21:59:13.751Z,6.16
2022-12-22T22:01:41.157Z,6.15
2022-12-22T22:04:07.790Z,6.15
2022-12-22T22:06:34.242Z,6.23
2022-12-22T22:09:00.886Z,6.20
2022-12-22T22:11:27.357Z,6.29
2022-12-22T22:13:53.828Z,6.29
2022-12-22T22:16:20.368Z,6.27
2022-12-22T22:18:47.232Z,6.28
2022-12-22T22:21:14.422Z,6.42
2022-12-22T22:23:40.897Z,6.45
2022-12-22T22:26:07.435Z,6.42
2022-12-22T22:28:33.933Z,6.40
2022-12-22T22:31:00.793Z,6.42
2022-12-22T22:33:27.351Z,6.43
2022-12-22T22:35:53.952Z,6.40
2022-12-22T22:38:20.976Z,6.41
2022-12-22T22:40:47.824Z,6.48
2022-12-22T22:43:14.604Z,6.51
2022-12-22T22:45:41.531Z,6.50
2022-12-22T22:48:11.090Z,6.46
2022-12-22T22:50:40.475Z,6.52
2022-12-22T22:53:06.932Z,6.56
2022-12-22T22:55:33.412Z,6.52
2022-12-22T22:57:59.880Z,6.53
2022-12-22T23:00:26.375Z,6.50
2022-12-22T23:02:52.928Z,6.57
2022-12-22T23:05:22.961Z,6.55
2022-12-22T23:07:49.664Z,6.49
2022-12-22T23:10:16.163Z,6.56
2022-12-22T23:12:42.662Z,6.57
2022-12-22T23:15:09.470Z,6.55
2022-12-22T23:17:35.960Z,6.47
2022-12-22T23:20:02.510Z,6.56
2022-12-22T23:22:28.983Z,6.61
2022-12-22T23:24:55.467Z,6.59
2022-12-22T23:27:21.965Z,6.67
2022-12-22T23:29:48.437Z,6.66
2022-12-22T23:32:14.930Z,6.82
2022-12-22T23:34:41.408Z,6.77
2022-12-22T23:37:10.959Z,6.75
2022-12-22T23:39:39.955Z,6.86
2022-12-22T23:42:06.425Z,6.84
2022-12-22T23:44:32.896Z,6.94
2022-12-22T23:46:59.450Z,6.83
2022-12-22T23:49:25.977Z,6.80
2022-12-22T23:51:52.543Z,6.81
2022-12-22T23:54:19.006Z,6.88
2022-12-22T23:56:45.508Z,6.99
2022-12-22T23:59:11.968Z,6.95
